createdAt,value
2022-09-15T00:01:16.511Z,11.20
2022-09-15T00:03:44.635Z,10.20
2022-09-15T00:06:12.926Z,10.10
2022-09-15T00:08:42.722Z,9.98
2022-09-15T00:11:13.391Z,7.25
2022-09-15T00:13:41.856Z,4.47
2022-09-15T00:16:14.846Z,7.03
2022-09-15T00:18:43.899Z,8.25
2022-09-15T00:21:14.515Z,8.07
2022-09-15T00:23:44.162Z,6.38
2022-09-15T00:26:14.750Z,8.30
2022-09-15T00:28:43.265Z,7.70
2022-09-15T00:31:14.164Z,8.48
2022-09-15T00:33:42.927Z,6.18
2022-09-15T00:36:14.198Z,6.72
2022-09-15T00:38:43.658Z,6.28
2022-09-15T00:41:13.680Z,7.90
2022-09-15T00:43:53.003Z,8.95
2022-09-15T00:46:23.869Z,7.40
2022-09-15T00:48:57.811Z,8.95
2022-09-15T00:51:33.636Z,5.45
2022-09-15T00:54:06.336Z,7.75
2022-09-15T00:56:36.165Z,5.85
2022-09-15T00:59:11.440Z,8.35
2022-09-15T01:01:42.055Z,5.93
2022-09-15T01:04:10.975Z,9.35
2022-09-15T01:06:43.521Z,8.77
2022-09-15T01:09:19.426Z,7.13
2022-09-15T01:11:47.824Z,8.98
2022-09-15T01:14:16.079Z,4.68
2022-09-15T01:16:53.497Z,8.32
2022-09-15T01:19:47.706Z,4.78
2022-09-15T01:22:31.228Z,6.55
2022-09-15T01:25:10.261Z,5.82
2022-09-15T01:28:03.055Z,5.70
2022-09-15T01:30:37.043Z,8.80
2022-09-15T01:33:13.279Z,10.85
2022-09-15T01:35:52.295Z,8.70
2022-09-15T01:38:30.627Z,6.93
2022-09-15T01:41:03.427Z,5.53
2022-09-15T01:43:34.383Z,6.13
2022-09-15T01:46:05.694Z,6.38
2022-09-15T01:48:37.312Z,4.32
2022-09-15T01:51:08.075Z,5.93
2022-09-15T01:53:36.823Z,5.13
2022-09-15T01:56:08.413Z,6.38
2022-09-15T01:58:38.250Z,9.27
2022-09-15T02:01:14.075Z,9.60
2022-09-15T02:03:47.099Z,9.55
2022-09-15T02:06:22.337Z,6.03
2022-09-15T02:08:57.459Z,5.55
2022-09-15T02:11:28.150Z,8.38
2022-09-15T02:14:11.573Z,5.90
2022-09-15T02:16:45.350Z,7.78
2022-09-15T02:19:19.845Z,5.60
2022-09-15T02:21:58.540Z,10.20
2022-09-15T02:24:32.354Z,7.68
2022-09-15T02:27:03.295Z,7.35
2022-09-15T02:29:36.462Z,9.73
2022-09-15T02:32:08.085Z,12.15
2022-09-15T02:34:40.934Z,8.18
2022-09-15T02:37:10.994Z,8.18
2022-09-15T02:39:44.703Z,7.30
2022-09-15T02:42:13.440Z,6.63
2022-09-15T02:44:41.404Z,9.73
2022-09-15T02:47:10.800Z,6.00
2022-09-15T02:49:38.842Z,8.95
2022-09-15T02:52:06.909Z,7.15
2022-09-15T02:54:34.862Z,5.70
2022-09-15T02:57:02.970Z,9.93
2022-09-15T02:59:51.710Z,7.85
2022-09-15T03:02:21.647Z,9.13
2022-09-15T03:04:50.604Z,7.05
2022-09-15T03:07:19.452Z,8.80
2022-09-15T03:09:47.434Z,8.23
2022-09-15T03:12:16.068Z,10.00
2022-09-15T03:14:44.597Z,13.73
2022-09-15T03:17:12.571Z,9.77
2022-09-15T03:19:41.992Z,9.63
2022-09-15T03:22:10.561Z,15.15
2022-09-15T03:24:39.206Z,7.03
2022-09-15T03:27:07.253Z,10.98
2022-09-15T03:29:35.308Z,8.65
2022-09-15T03:32:03.851Z,10.73
2022-09-15T03:34:31.892Z,9.25
2022-09-15T03:37:01.240Z,9.15
2022-09-15T03:39:29.204Z,11.13
2022-09-15T03:41:57.240Z,9.35
2022-09-15T03:44:25.556Z,12.38
2022-09-15T03:46:53.600Z,9.63
2022-09-15T03:49:21.749Z,9.52
2022-09-15T03:51:49.704Z,18.98
2022-09-15T03:54:19.687Z,9.18
2022-09-15T03:56:49.121Z,11.80
2022-09-15T03:59:19.583Z,13.45
2022-09-15T04:01:48.647Z,9.93
2022-09-15T04:04:16.850Z,9.07
2022-09-15T04:06:45.261Z,14.40
2022-09-15T04:09:13.681Z,14.75
2022-09-15T04:11:42.976Z,15.80
2022-09-15T04:14:11.235Z,11.00
2022-09-15T04:16:39.348Z,11.00
2022-09-15T04:19:07.570Z,11.98
2022-09-15T04:21:35.574Z,15.38
2022-09-15T04:24:04.904Z,13.30
2022-09-15T04:26:34.422Z,13.55
2022-09-15T04:29:05.903Z,13.23
2022-09-15T04:31:35.114Z,13.67
2022-09-15T04:34:03.186Z,11.52
2022-09-15T04:36:31.485Z,13.02
2022-09-15T04:38:59.471Z,9.55
2022-09-15T04:41:28.457Z,15.55
2022-09-15T04:43:56.916Z,17.25
2022-09-15T04:46:26.523Z,17.55
2022-09-15T04:48:54.493Z,13.73
2022-09-15T04:51:23.239Z,18.95
2022-09-15T04:53:51.881Z,18.27
2022-09-15T04:56:22.146Z,15.30
2022-09-15T04:58:53.039Z,15.40
2022-09-15T05:01:23.138Z,16.48
2022-09-15T05:03:53.147Z,24.23
2022-09-15T05:06:23.116Z,23.23
2022-09-15T05:08:53.122Z,21.40
2022-09-15T05:11:21.565Z,19.50
2022-09-15T05:13:50.188Z,27.83
2022-09-15T05:16:20.410Z,25.98
2022-09-15T05:18:49.806Z,18.13
2022-09-15T05:21:21.443Z,27.05
2022-09-15T05:23:50.378Z,20.98
2022-09-15T05:26:20.904Z,19.85
2022-09-15T05:28:49.057Z,26.73
2022-09-15T05:31:21.180Z,26.58
2022-09-15T05:33:50.935Z,24.88
2022-09-15T05:36:23.461Z,22.90
2022-09-15T05:38:51.704Z,15.68
2022-09-15T05:41:20.928Z,21.65
2022-09-15T05:43:50.777Z,24.60
2022-09-15T05:46:20.635Z,26.42
2022-09-15T05:48:48.806Z,17.45
2022-09-15T05:51:16.831Z,26.02
2022-09-15T05:53:46.266Z,19.60
2022-09-15T05:56:15.939Z,32.55
2022-09-15T05:58:45.939Z,19.77
2022-09-15T06:01:16.395Z,15.43
2022-09-15T06:03:44.972Z,22.00
2022-09-15T06:06:13.441Z,29.05
2022-09-15T06:08:45.339Z,22.90
2022-09-15T06:11:19.033Z,23.33
2022-09-15T06:13:47.932Z,21.85
2022-09-15T06:16:18.433Z,13.68
2022-09-15T06:18:48.059Z,16.63
2022-09-15T06:21:18.685Z,17.23
2022-09-15T06:23:50.694Z,16.67
2022-09-15T06:26:21.504Z,17.85
2022-09-15T06:28:51.390Z,11.98
2022-09-15T06:31:20.557Z,12.98
2022-09-15T06:33:51.397Z,14.23
2022-09-15T06:36:21.767Z,12.63
2022-09-15T06:38:50.176Z,15.20
2022-09-15T06:41:18.247Z,16.88
2022-09-15T06:43:49.298Z,11.27
2022-09-15T06:46:19.340Z,12.00
2022-09-15T06:48:48.670Z,11.27
2022-09-15T06:51:18.721Z,14.13
2022-09-15T06:53:47.058Z,15.32
2022-09-15T06:56:17.201Z,17.42
2022-09-15T06:58:46.255Z,23.15
2022-09-15T07:01:20.595Z,19.60
2022-09-15T07:03:48.677Z,23.25
2022-09-15T07:06:17.069Z,22.25
2022-09-15T07:08:45.496Z,20.88
2022-09-15T07:11:13.874Z,24.15
2022-09-15T07:13:42.674Z,21.70
2022-09-15T07:16:13.684Z,26.17
2022-09-15T07:18:43.779Z,23.25
2022-09-15T07:21:14.500Z,27.48
2022-09-15T07:23:43.062Z,26.58
2022-09-15T07:26:13.358Z,21.45
2022-09-15T07:28:42.707Z,27.77
2022-09-15T07:31:13.622Z,24.75
2022-09-15T07:33:43.218Z,24.95
2022-09-15T07:36:12.024Z,24.70
2022-09-15T07:38:41.857Z,26.15
2022-09-15T07:41:12.393Z,22.90
2022-09-15T07:43:40.686Z,18.83
2022-09-15T07:46:08.855Z,26.92
2022-09-15T07:48:36.935Z,21.90
2022-09-15T07:51:06.604Z,23.58
2022-09-15T07:53:34.628Z,28.55
2022-09-15T07:56:02.854Z,25.02
2022-09-15T07:58:30.972Z,19.65
2022-09-15T08:01:03.439Z,20.10
2022-09-15T08:03:31.468Z,18.40
2022-09-15T08:06:00.131Z,14.32
2022-09-15T08:08:30.515Z,19.33
2022-09-15T08:10:59.125Z,19.67
2022-09-15T08:13:27.311Z,23.88
2022-09-15T08:15:55.445Z,22.92
2022-09-15T08:18:23.469Z,14.55
2022-09-15T08:20:51.479Z,15.60
2022-09-15T08:23:19.556Z,27.08
2022-09-15T08:25:51.481Z,17.75
2022-09-15T08:28:19.590Z,16.55
2022-09-15T08:30:47.590Z,14.05
2022-09-15T08:33:15.590Z,14.23
2022-09-15T08:35:43.555Z,17.60
2022-09-15T08:38:11.514Z,18.17
2022-09-15T08:40:39.592Z,14.07
2022-09-15T08:43:18.187Z,18.15
2022-09-15T08:45:54.048Z,18.45
2022-09-15T08:48:27.490Z,14.10
2022-09-15T08:50:59.140Z,12.80
2022-09-15T08:53:32.635Z,16.25
2022-09-15T08:56:08.233Z,10.93
2022-09-15T08:58:39.727Z,9.45
2022-09-15T09:01:18.727Z,9.00
2022-09-15T09:04:00.770Z,9.95
2022-09-15T09:06:39.930Z,9.77
2022-09-15T09:09:20.820Z,14.48
2022-09-15T09:12:10.311Z,11.57
2022-09-15T09:14:55.019Z,9.95
2022-09-15T09:17:43.232Z,15.52
2022-09-15T09:20:32.255Z,8.20
2022-09-15T09:23:02.484Z,8.57
2022-09-15T09:25:31.320Z,10.23
2022-09-15T09:28:01.349Z,7.05
2022-09-15T09:30:34.370Z,13.77
2022-09-15T09:33:18.819Z,13.55
2022-09-15T09:35:50.136Z,12.50
2022-09-15T09:38:23.967Z,5.75
2022-09-15T09:40:53.025Z,8.40
2022-09-15T09:43:21.550Z,7.13
2022-09-15T09:45:51.033Z,7.55
2022-09-15T09:48:22.164Z,8.90
2022-09-15T09:50:50.804Z,9.63
2022-09-15T09:53:24.656Z,14.35
2022-09-15T09:55:53.497Z,6.30
2022-09-15T09:58:24.149Z,10.07
2022-09-15T10:00:54.365Z,8.13
2022-09-15T10:03:26.219Z,8.15
2022-09-15T10:06:06.466Z,6.10
2022-09-15T10:08:36.771Z,9.95
2022-09-15T10:11:07.802Z,6.22
2022-09-15T10:13:37.407Z,12.38
2022-09-15T10:16:08.024Z,6.43
2022-09-15T10:18:38.728Z,4.07
2022-09-15T10:21:09.519Z,9.18
2022-09-15T10:23:39.054Z,11.15
2022-09-15T10:26:32.169Z,10.35
2022-09-15T10:29:16.267Z,9.45
2022-09-15T10:31:46.999Z,11.95
2022-09-15T10:34:30.578Z,12.52
2022-09-15T10:37:09.718Z,12.20
2022-09-15T10:39:51.457Z,13.60
2022-09-15T10:42:30.873Z,11.20
2022-09-15T10:45:09.787Z,9.05
2022-09-15T10:47:48.464Z,9.43
2022-09-15T10:50:25.314Z,14.13
2022-09-15T10:53:09.784Z,12.50
2022-09-15T10:55:53.034Z,14.43
2022-09-15T10:58:45.051Z,13.65
2022-09-15T11:01:45.690Z,12.73
2022-09-15T11:04:45.589Z,19.48
2022-09-15T11:07:25.039Z,9.60
2022-09-15T11:10:03.049Z,9.10
2022-09-15T11:12:45.920Z,9.82
2022-09-15T11:15:28.138Z,7.95
2022-09-15T11:18:11.665Z,10.55
2022-09-15T11:21:05.146Z,10.75
2022-09-15T11:23:36.347Z,9.70
2022-09-15T11:26:09.392Z,9.82
2022-09-15T11:28:42.486Z,11.63
2022-09-15T11:31:15.590Z,9.85
2022-09-15T11:33:48.223Z,12.73
2022-09-15T11:36:21.263Z,10.13
2022-09-15T11:38:55.169Z,14.70
2022-09-15T11:41:31.142Z,10.00
2022-09-15T11:44:16.182Z,8.93
2022-09-15T11:47:07.686Z,16.58
2022-09-15T11:49:41.933Z,6.70
2022-09-15T11:52:36.707Z,13.98
2022-09-15T11:55:16.791Z,7.53
2022-09-15T11:57:52.263Z,9.32
2022-09-15T12:00:21.982Z,7.88
2022-09-15T12:02:57.275Z,9.18
2022-09-15T12:05:32.103Z,14.80
2022-09-15T12:08:07.349Z,7.70
2022-09-15T12:10:41.661Z,9.30
2022-09-15T12:13:16.814Z,13.63
2022-09-15T12:15:45.628Z,10.25
2022-09-15T12:18:38.104Z,10.68
2022-09-15T12:21:15.833Z,6.82
2022-09-15T12:23:53.313Z,12.18
2022-09-15T12:26:23.499Z,9.68
2022-09-15T12:28:57.375Z,8.13
2022-09-15T12:31:38.051Z,11.50
2022-09-15T12:34:23.279Z,6.35
2022-09-15T12:36:53.824Z,5.32
2022-09-15T12:39:31.790Z,14.25
2022-09-15T12:42:25.101Z,9.30
2022-09-15T12:44:57.077Z,10.13
2022-09-15T12:47:32.972Z,13.73
2022-09-15T12:50:07.420Z,7.85
2022-09-15T12:52:45.874Z,8.52
2022-09-15T12:55:24.018Z,6.78
2022-09-15T12:57:57.980Z,8.05
2022-09-15T13:00:54.766Z,9.30
2022-09-15T13:03:50.242Z,7.80
2022-09-15T13:06:21.602Z,10.40
2022-09-15T13:08:52.026Z,13.25
2022-09-15T13:11:31.854Z,11.52
2022-09-15T13:14:14.779Z,7.93
2022-09-15T13:16:51.854Z,17.92
2022-09-15T13:19:23.729Z,6.13
2022-09-15T13:21:59.809Z,6.07
2022-09-15T13:24:38.921Z,12.63
2022-09-15T13:27:09.644Z,10.50
2022-09-15T13:29:46.529Z,7.38
2022-09-15T13:32:32.834Z,9.25
2022-09-15T13:35:20.834Z,13.85
2022-09-15T13:38:14.016Z,13.02
2022-09-15T13:41:39.728Z,8.95
2022-09-15T13:44:35.793Z,12.70
2022-09-15T13:47:24.489Z,12.25
2022-09-15T13:49:56.839Z,8.43
2022-09-15T13:52:54.734Z,9.80
2022-09-15T13:55:28.254Z,10.05
2022-09-15T14:00:59.867Z,11.07
2022-09-15T14:03:37.009Z,7.97
2022-09-15T14:06:13.748Z,13.45
2022-09-15T14:08:43.440Z,9.50
2022-09-15T14:11:14.518Z,8.43
2022-09-15T14:13:46.046Z,9.25
2022-09-15T14:16:30.587Z,10.77
2022-09-15T14:19:00.225Z,11.50
2022-09-15T14:21:29.712Z,10.85
2022-09-15T14:23:59.719Z,9.07
2022-09-15T14:26:30.283Z,10.13
2022-09-15T14:29:00.184Z,8.82
2022-09-15T14:31:31.718Z,11.15
2022-09-15T14:34:00.025Z,10.32
2022-09-15T14:36:31.122Z,9.60
2022-09-15T14:39:09.096Z,11.02
2022-09-15T14:41:37.804Z,13.13
2022-09-15T14:47:24.527Z,15.98
2022-09-15T14:50:07.911Z,10.10
2022-09-15T14:52:41.629Z,11.07
2022-09-15T14:55:16.645Z,12.63
2022-09-15T14:57:52.183Z,11.20
2022-09-15T15:00:23.716Z,14.50
2022-09-15T15:03:03.805Z,12.80
2022-09-15T15:05:36.687Z,9.18
2022-09-15T15:08:08.314Z,10.23
2022-09-15T15:10:37.638Z,8.55
2022-09-15T15:13:14.217Z,9.45
2022-09-15T15:15:43.405Z,8.57
2022-09-15T15:18:32.200Z,8.05
2022-09-15T15:21:00.467Z,15.13
2022-09-15T15:23:29.425Z,8.45
2022-09-15T15:26:34.509Z,12.20
2022-09-15T15:29:02.723Z,11.88
2022-09-15T15:31:31.443Z,8.07
2022-09-15T15:34:05.605Z,13.23
2022-09-15T15:36:35.867Z,8.65
2022-09-15T15:39:06.783Z,10.48
2022-09-15T15:41:37.405Z,19.85
2022-09-15T15:44:08.932Z,16.25
2022-09-15T15:46:52.489Z,18.05
2022-09-15T15:49:25.963Z,17.15
2022-09-15T15:52:02.864Z,12.35
2022-09-15T15:54:31.935Z,15.23
2022-09-15T15:57:21.668Z,19.40
2022-09-15T15:59:49.680Z,14.38
2022-09-15T16:02:17.837Z,14.65
2022-09-15T16:04:47.361Z,18.30
2022-09-15T16:07:19.010Z,15.05
2022-09-15T16:09:48.547Z,15.50
2022-09-15T16:12:16.718Z,14.57
2022-09-15T16:14:44.845Z,9.05
2022-09-15T16:17:12.855Z,15.57
2022-09-15T16:19:40.896Z,18.17
2022-09-15T16:22:16.745Z,10.10
2022-09-15T16:24:44.766Z,11.85
2022-09-15T16:27:16.474Z,16.17
2022-09-15T16:29:45.006Z,16.27
2022-09-15T16:32:19.312Z,14.73
2022-09-15T16:34:47.953Z,14.63
2022-09-15T16:37:18.595Z,15.90
2022-09-15T16:39:46.726Z,18.17
2022-09-15T16:42:14.898Z,22.30
2022-09-15T16:44:46.389Z,22.23
2022-09-15T16:47:14.473Z,21.42
2022-09-15T16:49:42.759Z,23.45
2022-09-15T16:52:13.905Z,27.55
2022-09-15T16:54:44.571Z,27.42
2022-09-15T16:57:12.567Z,23.65
2022-09-15T16:59:40.641Z,26.60
2022-09-15T17:02:14.724Z,20.70
2022-09-15T17:04:42.871Z,31.02
2022-09-15T17:07:10.995Z,28.38
2022-09-15T17:09:39.014Z,26.88
2022-09-15T17:12:10.466Z,20.75
2022-09-15T17:14:39.146Z,26.67
2022-09-15T17:17:07.727Z,19.25
2022-09-15T17:19:35.797Z,21.90
2022-09-15T17:22:03.892Z,30.55
2022-09-15T17:24:31.929Z,22.65
2022-09-15T17:27:00.271Z,25.17
2022-09-15T17:29:29.738Z,21.42
2022-09-15T17:31:57.837Z,22.17
2022-09-15T17:34:25.909Z,23.65
2022-09-15T17:36:54.031Z,21.42
2022-09-15T17:39:22.175Z,21.40
2022-09-15T17:41:50.989Z,25.02
2022-09-15T17:44:19.173Z,34.95
2022-09-15T17:46:49.396Z,27.50
2022-09-15T17:49:17.965Z,22.27
2022-09-15T17:51:45.982Z,20.70
2022-09-15T17:54:14.087Z,17.60
2022-09-15T17:56:42.368Z,16.15
2022-09-15T17:59:14.316Z,19.45
2022-09-15T18:01:44.879Z,14.23
2022-09-15T18:04:14.660Z,19.10
2022-09-15T18:06:45.546Z,18.80
2022-09-15T18:09:14.861Z,16.65
2022-09-15T18:11:42.949Z,18.50
2022-09-15T18:14:12.045Z,17.63
2022-09-15T18:16:41.987Z,12.73
2022-09-15T18:19:10.987Z,17.38
2022-09-15T18:21:40.506Z,12.82
2022-09-15T18:24:10.769Z,16.00
2022-09-15T18:26:38.789Z,18.92
2022-09-15T18:29:06.923Z,15.70
2022-09-15T18:31:35.192Z,12.80
2022-09-15T18:34:03.271Z,20.27
2022-09-15T18:36:31.448Z,18.88
2022-09-15T18:39:01.251Z,8.30
2022-09-15T18:41:29.368Z,14.80
2022-09-15T18:43:57.747Z,9.00
2022-09-15T18:46:25.899Z,11.52
2022-09-15T18:48:54.125Z,12.38
2022-09-15T18:51:29.174Z,16.15
2022-09-15T18:54:04.527Z,10.18
2022-09-15T18:56:32.632Z,9.48
2022-09-15T18:59:00.737Z,13.30
2022-09-15T19:01:29.067Z,14.38
2022-09-15T19:03:58.343Z,12.10
2022-09-15T19:06:29.785Z,12.68
2022-09-15T19:08:58.406Z,11.95
2022-09-15T19:11:29.363Z,13.57
2022-09-15T19:13:57.845Z,15.82
2022-09-15T19:16:34.702Z,14.45
2022-09-15T19:19:08.612Z,12.88
2022-09-15T19:21:37.455Z,15.32
2022-09-15T19:24:05.823Z,14.10
2022-09-15T19:26:35.346Z,15.10
2022-09-15T19:29:04.267Z,22.90
2022-09-15T19:31:32.720Z,14.82
2022-09-15T19:34:00.804Z,16.17
2022-09-15T19:36:29.405Z,14.73
2022-09-15T19:38:58.073Z,11.82
2022-09-15T19:41:26.554Z,12.70
2022-09-15T19:43:56.069Z,16.90
2022-09-15T19:46:26.211Z,13.98
2022-09-15T19:48:55.283Z,11.98
2022-09-15T19:51:23.915Z,11.70
2022-09-15T19:53:55.231Z,9.80
2022-09-15T19:56:26.319Z,16.63
2022-09-15T19:58:57.085Z,12.57
2022-09-15T20:01:27.377Z,13.98
2022-09-15T20:03:57.038Z,14.15
2022-09-15T20:06:28.946Z,13.95
2022-09-15T20:09:00.228Z,14.73
2022-09-15T20:11:29.669Z,18.38
2022-09-15T20:13:59.696Z,16.00
2022-09-15T20:16:28.531Z,12.10
2022-09-15T20:18:56.970Z,17.98
2022-09-15T20:21:46.288Z,20.83
2022-09-15T20:24:18.996Z,18.50
2022-09-15T20:26:47.383Z,24.58
2022-09-15T20:29:17.208Z,16.10
2022-09-15T20:31:45.210Z,13.65
2022-09-15T20:34:13.340Z,15.13
2022-09-15T20:36:41.629Z,16.15
2022-09-15T20:39:13.212Z,16.73
2022-09-15T20:41:42.255Z,15.00
2022-09-15T20:44:10.321Z,14.98
2022-09-15T20:46:39.792Z,20.25
2022-09-15T20:49:09.033Z,18.45
2022-09-15T20:51:37.149Z,14.27
2022-09-15T20:54:06.232Z,15.45
2022-09-15T20:56:36.298Z,17.70
2022-09-15T20:59:06.122Z,13.10
2022-09-15T21:01:36.357Z,22.00
2022-09-15T21:04:06.936Z,15.32
2022-09-15T21:06:35.973Z,15.45
2022-09-15T21:09:05.838Z,14.18
2022-09-15T21:11:33.951Z,24.30
2022-09-15T21:14:03.685Z,19.83
2022-09-15T21:16:33.877Z,14.07
2022-09-15T21:19:02.491Z,14.07
2022-09-15T21:21:33.642Z,17.35
2022-09-15T21:24:04.160Z,16.63
2022-09-15T21:26:34.118Z,16.08
2022-09-15T21:29:02.764Z,17.92
2022-09-15T21:31:33.319Z,19.35
2022-09-15T21:34:01.416Z,15.20
2022-09-15T21:36:32.217Z,18.17
2022-09-15T21:39:03.021Z,14.45
2022-09-15T21:41:31.278Z,13.43
2022-09-15T21:44:01.078Z,16.40
2022-09-15T21:46:30.458Z,17.38
2022-09-15T21:49:00.576Z,18.55
2022-09-15T21:51:31.349Z,19.40
2022-09-15T21:54:01.077Z,13.23
2022-09-15T21:56:30.361Z,16.63
2022-09-15T21:58:58.503Z,12.13
2022-09-15T22:01:29.266Z,15.60
2022-09-15T22:03:59.900Z,15.73
2022-09-15T22:06:31.745Z,13.25
2022-09-15T22:09:02.105Z,14.90
2022-09-15T22:11:30.337Z,18.83
2022-09-15T22:13:58.800Z,10.68
2022-09-15T22:16:27.165Z,13.05
2022-09-15T22:18:55.622Z,12.52
2022-09-15T22:21:26.184Z,10.43
2022-09-15T22:23:56.772Z,13.13
2022-09-15T22:26:28.479Z,15.00
2022-09-15T22:28:57.207Z,13.77
2022-09-15T22:31:26.159Z,18.90
2022-09-15T22:33:54.906Z,19.10
2022-09-15T22:36:28.977Z,14.70
2022-09-15T22:39:04.130Z,16.67
2022-09-15T22:41:36.687Z,16.60
2022-09-15T22:44:05.319Z,14.02
2022-09-15T22:46:33.556Z,14.07
2022-09-15T22:49:01.978Z,12.43
2022-09-15T22:51:30.410Z,14.55
2022-09-15T22:53:59.376Z,13.65
2022-09-15T22:56:27.743Z,14.43
2022-09-15T22:58:57.774Z,11.27
2022-09-15T23:01:28.402Z,14.25
2022-09-15T23:04:02.106Z,8.15
2022-09-15T23:06:32.498Z,7.57
2022-09-15T23:09:03.405Z,9.18
2022-09-15T23:11:33.413Z,8.35
2022-09-15T23:14:03.238Z,9.40
2022-09-15T23:16:31.665Z,9.65
2022-09-15T23:19:00.709Z,16.25
2022-09-15T23:21:29.108Z,8.40
2022-09-15T23:23:57.515Z,10.75
2022-09-15T23:26:26.874Z,8.75
2022-09-15T23:28:55.043Z,11.77
2022-09-15T23:31:24.589Z,11.18
2022-09-15T23:33:52.769Z,10.10
2022-09-15T23:36:21.228Z,8.73
2022-09-15T23:38:49.928Z,8.45
2022-09-15T23:41:19.157Z,8.07
2022-09-15T23:43:47.682Z,10.98
2022-09-15T23:46:15.841Z,12.20
2022-09-15T23:48:45.406Z,10.23
2022-09-15T23:51:13.373Z,11.02
2022-09-15T23:53:41.376Z,11.88
2022-09-15T23:56:10.403Z,13.02
2022-09-15T23:58:38.927Z,7.53
